Igarka, Russia
Current Conditions -  °F | °C
As of 11:00 AM on Monday 24 Nov 2014 (Local Time) from USNN Reporting Station
Broken Clouds Broken Clouds  
Wind Chill: -42°   Ceiling: 6400
Heat Index: -22°   Visibility: 5mi
Dew Point: -29°   Wind: 9mph
Humidity: 69%   Direction: 240°WSW
Pressure: 29.91"   Gusts: NA
Location:  67.47°N, 86.58°E
Report Text: USNN 240400Z 24004MPS 8000 BKN064 M30/M34 Q1013 NOSIG RMKQFE756 0331//60
Loading
Personal Weather Stations






























Interactive Weather Map New forecast layout! Learn more

10-Day Weather Forecast

Advertisements
Track Severe Weather on mobile